createdAt,value
2023-04-29T00:01:42.192Z,8.77
2023-04-29T00:04:18.094Z,11.05
2023-04-29T00:06:53.701Z,9.38
2023-04-29T00:09:29.092Z,7.75
2023-04-29T00:12:04.260Z,6.57
2023-04-29T00:14:42.714Z,8.27
2023-04-29T00:17:20.213Z,12.75
2023-04-29T00:19:57.402Z,8.75
2023-04-29T00:22:39.504Z,8.55
2023-04-29T00:25:16.294Z,8.77
2023-04-29T00:27:52.777Z,11.02
2023-04-29T00:30:29.208Z,9.40
2023-04-29T00:33:06.501Z,7.82
2023-04-29T00:35:43.815Z,9.98
2023-04-29T00:38:19.115Z,8.65
2023-04-29T00:40:55.524Z,9.43
2023-04-29T00:43:30.783Z,10.82
2023-04-29T00:46:06.701Z,9.13
2023-04-29T00:48:45.604Z,9.00
2023-04-29T00:51:24.976Z,12.32
2023-04-29T00:54:01.867Z,8.40
2023-04-29T00:56:38.814Z,10.50
2023-04-29T00:59:17.509Z,7.80
2023-04-29T01:01:57.008Z,8.82
2023-04-29T01:04:34.274Z,8.73
2023-04-29T01:07:19.352Z,8.57
2023-04-29T01:10:07.481Z,7.70
2023-04-29T01:12:51.421Z,8.10
2023-04-29T01:15:31.028Z,8.07
2023-04-29T01:18:20.742Z,8.38
2023-04-29T01:21:17.591Z,8.98
2023-04-29T01:24:05.100Z,7.57
2023-04-29T01:26:42.575Z,8.45
2023-04-29T01:29:48.910Z,7.05
2023-04-29T01:32:38.186Z,9.60
2023-04-29T01:35:25.806Z,9.65
2023-04-29T01:38:15.679Z,8.13
2023-04-29T01:41:18.956Z,10.02
2023-04-29T01:44:01.267Z,8.68
2023-04-29T01:46:37.787Z,10.15
2023-04-29T01:49:13.745Z,10.73
2023-04-29T01:51:52.321Z,8.18
2023-04-29T01:54:28.029Z,8.30
2023-04-29T01:57:08.012Z,7.93
2023-04-29T02:00:06.546Z,9.88
2023-04-29T02:03:02.151Z,7.72
2023-04-29T02:05:49.312Z,8.80
2023-04-29T02:08:25.726Z,6.70
2023-04-29T02:11:03.795Z,7.75
2023-04-29T02:13:48.141Z,9.60
2023-04-29T02:16:24.568Z,10.93
2023-04-29T02:19:05.525Z,8.80
2023-04-29T02:21:42.517Z,7.60
2023-04-29T02:24:19.359Z,8.70
2023-04-29T02:26:55.963Z,9.35
2023-04-29T02:29:33.875Z,9.68
2023-04-29T02:32:10.438Z,9.77
2023-04-29T02:34:47.071Z,10.55
2023-04-29T02:37:23.196Z,7.68
2023-04-29T02:39:59.153Z,8.75
2023-04-29T02:42:37.106Z,8.10
2023-04-29T02:45:16.616Z,7.85
2023-04-29T02:47:53.699Z,7.63
2023-04-29T02:50:30.288Z,6.90
2023-04-29T02:53:06.150Z,6.82
2023-04-29T02:55:45.891Z,7.53
2023-04-29T02:58:21.851Z,7.63
2023-04-29T03:00:59.897Z,6.60
2023-04-29T03:03:35.379Z,6.10
2023-04-29T03:06:11.926Z,7.18
2023-04-29T03:08:48.231Z,7.15
2023-04-29T03:11:26.267Z,7.50
2023-04-29T03:14:02.978Z,6.47
2023-04-29T03:16:41.504Z,6.25
2023-04-29T03:19:17.338Z,6.00
2023-04-29T03:21:53.932Z,5.00
2023-04-29T03:24:30.486Z,8.73
2023-04-29T03:27:06.541Z,5.68
2023-04-29T03:29:42.038Z,4.82
2023-04-29T03:32:21.061Z,5.85
2023-04-29T03:34:57.655Z,5.68
2023-04-29T03:37:43.171Z,6.47
2023-04-29T03:40:32.508Z,5.88
2023-04-29T03:43:09.631Z,6.97
2023-04-29T03:45:56.511Z,8.23
2023-04-29T03:48:34.006Z,6.80
2023-04-29T03:51:10.893Z,6.15
2023-04-29T03:53:49.186Z,6.38
2023-04-29T03:56:27.161Z,6.28
2023-04-29T03:59:02.764Z,4.53
2023-04-29T04:01:38.790Z,9.15
2023-04-29T04:04:17.839Z,4.82
2023-04-29T04:06:55.954Z,7.63
2023-04-29T04:09:36.334Z,6.53
2023-04-29T04:12:13.818Z,6.47
2023-04-29T04:14:49.902Z,6.15
2023-04-29T04:17:26.241Z,5.35
2023-04-29T04:20:03.728Z,5.82
2023-04-29T04:22:39.763Z,6.22
2023-04-29T04:25:41.429Z,7.35
2023-04-29T04:28:36.956Z,5.97
2023-04-29T04:31:29.293Z,7.38
2023-04-29T04:34:05.199Z,7.97
2023-04-29T04:36:43.902Z,6.70
2023-04-29T04:39:19.260Z,6.95
2023-04-29T04:41:55.478Z,8.07
2023-04-29T04:44:35.395Z,6.80
2023-04-29T04:47:17.484Z,6.80
2023-04-29T04:50:18.525Z,5.97
2023-04-29T04:53:00.648Z,6.38
2023-04-29T04:55:56.555Z,6.13
2023-04-29T04:58:33.343Z,8.02
2023-04-29T05:01:09.212Z,6.15
2023-04-29T05:03:44.876Z,6.60
2023-04-29T05:06:20.878Z,6.43
2023-04-29T05:08:59.997Z,6.13
2023-04-29T05:11:35.128Z,6.88
2023-04-29T05:14:18.254Z,6.15
2023-04-29T05:16:55.513Z,6.53
2023-04-29T05:19:31.286Z,6.15
2023-04-29T05:22:08.049Z,26.98
2023-04-29T05:24:45.422Z,11.35
2023-04-29T05:27:20.899Z,12.82
2023-04-29T05:29:57.954Z,8.80
2023-04-29T05:32:35.864Z,12.82
2023-04-29T05:35:14.635Z,7.70
2023-04-29T05:37:51.069Z,6.25
2023-04-29T05:40:48.029Z,5.72
2023-04-29T05:43:42.313Z,8.65
2023-04-29T05:46:22.156Z,7.38
2023-04-29T05:48:57.802Z,5.05
2023-04-29T05:51:36.736Z,7.88
2023-04-29T05:54:16.340Z,7.18
2023-04-29T05:57:08.476Z,5.43
2023-04-29T05:59:44.376Z,5.85
2023-04-29T06:02:23.406Z,6.10
2023-04-29T06:04:59.090Z,6.00
2023-04-29T06:07:52.514Z,5.40
2023-04-29T06:10:55.041Z,5.80
2023-04-29T06:13:36.684Z,6.28
2023-04-29T06:16:14.455Z,5.30
2023-04-29T06:18:50.452Z,6.57
2023-04-29T06:21:26.425Z,4.38
2023-04-29T06:24:03.586Z,7.25
2023-04-29T06:26:39.470Z,5.60
2023-04-29T06:29:17.645Z,5.72
2023-04-29T06:31:55.938Z,7.82
2023-04-29T06:34:32.347Z,6.97
2023-04-29T06:37:37.950Z,6.38
2023-04-29T06:40:31.660Z,5.57
2023-04-29T06:43:34.593Z,6.72
2023-04-29T06:46:26.693Z,7.53
2023-04-29T06:49:11.041Z,7.80
2023-04-29T06:51:47.074Z,5.43
2023-04-29T06:54:23.131Z,7.35
2023-04-29T06:56:59.872Z,6.85
2023-04-29T06:59:35.342Z,6.57
2023-04-29T07:02:14.542Z,11.82
2023-04-29T07:04:51.619Z,8.77
2023-04-29T07:07:29.800Z,9.30
2023-04-29T07:10:05.275Z,7.82
2023-04-29T07:12:41.157Z,8.40
2023-04-29T07:15:23.144Z,9.32
2023-04-29T07:18:07.229Z,7.10
2023-04-29T07:20:45.261Z,8.10
2023-04-29T07:23:21.286Z,8.70
2023-04-29T07:26:00.966Z,7.72
2023-04-29T07:28:36.475Z,9.63
2023-04-29T07:31:11.886Z,8.15
2023-04-29T07:33:51.107Z,8.68
2023-04-29T07:36:27.129Z,7.75
2023-04-29T07:39:02.684Z,9.20
2023-04-29T07:41:40.009Z,8.25
2023-04-29T07:44:15.975Z,9.57
2023-04-29T07:46:52.708Z,8.00
2023-04-29T07:49:30.778Z,8.48
2023-04-29T07:52:06.072Z,8.68
2023-04-29T07:54:41.908Z,8.65
2023-04-29T07:57:17.963Z,10.18
2023-04-29T07:59:58.028Z,9.70
2023-04-29T08:02:36.755Z,6.50
2023-04-29T08:05:16.201Z,9.15
2023-04-29T08:07:55.141Z,7.40
2023-04-29T08:10:33.024Z,8.70
2023-04-29T08:13:08.319Z,9.82
2023-04-29T08:15:44.137Z,8.40
2023-04-29T08:18:20.144Z,8.70
2023-04-29T08:20:58.180Z,9.93
2023-04-29T08:23:34.145Z,15.52
2023-04-29T08:26:14.602Z,9.35
2023-04-29T08:28:55.150Z,8.48
2023-04-29T08:31:38.128Z,10.70
2023-04-29T08:34:13.761Z,10.50
2023-04-29T08:36:52.231Z,9.88
2023-04-29T08:39:28.041Z,7.95
2023-04-29T08:42:04.502Z,8.05
2023-04-29T08:44:41.534Z,9.40
2023-04-29T08:47:20.585Z,10.07
2023-04-29T08:49:56.655Z,7.50
2023-04-29T08:52:47.645Z,7.93
2023-04-29T08:55:38.803Z,6.68
2023-04-29T08:58:28.676Z,7.00
2023-04-29T09:02:04.060Z,6.43
2023-04-29T09:04:52.035Z,7.00
2023-04-29T09:07:35.964Z,12.98
2023-04-29T09:10:14.742Z,9.05
2023-04-29T09:13:33.319Z,13.25
2023-04-29T09:16:09.871Z,9.57
2023-04-29T09:19:14.376Z,13.23
2023-04-29T09:22:01.926Z,12.02
2023-04-29T09:25:55.631Z,11.88
2023-04-29T09:28:31.386Z,11.35
2023-04-29T09:31:08.388Z,11.50
2023-04-29T09:34:00.618Z,10.30
2023-04-29T09:36:48.916Z,13.95
2023-04-29T09:39:25.860Z,10.65
2023-04-29T09:42:07.621Z,14.10
2023-04-29T09:45:00.491Z,10.73
2023-04-29T09:51:14.919Z,9.73
2023-04-29T09:54:23.896Z,11.75
2023-04-29T10:01:06.025Z,10.27
2023-04-29T10:03:50.835Z,12.90
2023-04-29T10:06:35.333Z,15.50
2023-04-29T10:09:29.797Z,14.82
2023-04-29T10:13:08.964Z,11.52
2023-04-29T10:15:57.298Z,11.45
2023-04-29T10:19:15.098Z,11.90
2023-04-29T10:22:19.799Z,11.13
2023-04-29T10:25:00.883Z,12.65
2023-04-29T10:27:39.568Z,13.68
2023-04-29T10:30:18.823Z,11.65
2023-04-29T10:32:55.369Z,12.10
2023-04-29T10:35:31.478Z,10.88
2023-04-29T10:38:20.532Z,11.15
2023-04-29T10:41:09.076Z,10.07
2023-04-29T10:43:46.666Z,10.70
2023-04-29T10:46:28.676Z,9.23
2023-04-29T10:49:08.115Z,9.20
2023-04-29T10:51:46.332Z,9.15
2023-04-29T10:54:27.631Z,11.75
2023-04-29T10:57:04.479Z,12.25
2023-04-29T10:59:53.018Z,7.22
2023-04-29T11:02:28.977Z,6.82
2023-04-29T11:05:16.143Z,9.20
2023-04-29T11:07:52.794Z,8.20
2023-04-29T11:10:42.308Z,6.57
2023-04-29T11:13:36.108Z,8.57
2023-04-29T11:16:15.640Z,6.80
2023-04-29T11:19:09.930Z,6.20
2023-04-29T11:21:45.609Z,9.25
2023-04-29T11:24:21.693Z,6.35
2023-04-29T11:26:58.469Z,7.10
2023-04-29T11:29:38.622Z,7.00
2023-04-29T11:32:36.187Z,7.70
2023-04-29T11:35:21.133Z,6.28
2023-04-29T11:38:01.658Z,7.32
2023-04-29T11:40:39.380Z,7.15
2023-04-29T11:43:24.584Z,8.32
2023-04-29T11:46:00.256Z,8.75
2023-04-29T11:48:38.685Z,7.57
2023-04-29T11:51:15.185Z,10.07
2023-04-29T11:53:54.714Z,10.07
2023-04-29T11:56:31.181Z,10.27
2023-04-29T11:59:09.887Z,8.90
2023-04-29T12:01:46.761Z,9.40
2023-04-29T12:04:24.855Z,7.60
2023-04-29T12:07:13.738Z,7.65
2023-04-29T12:09:50.631Z,5.47
2023-04-29T12:12:27.410Z,5.90
2023-04-29T12:15:04.822Z,6.97
2023-04-29T12:17:40.532Z,5.95
2023-04-29T12:20:22.040Z,6.07
2023-04-29T12:22:57.925Z,5.47
2023-04-29T12:25:36.951Z,4.80
2023-04-29T12:28:17.949Z,7.35
2023-04-29T12:30:55.720Z,6.05
2023-04-29T12:33:32.475Z,5.22
2023-04-29T12:36:20.379Z,6.70
2023-04-29T12:38:57.631Z,5.72
2023-04-29T12:41:51.184Z,5.95
2023-04-29T12:44:27.186Z,5.30
2023-04-29T12:47:15.302Z,5.40
2023-04-29T12:49:52.245Z,7.55
2023-04-29T12:52:36.434Z,5.20
2023-04-29T12:55:12.311Z,5.32
2023-04-29T12:57:47.962Z,4.90
2023-04-29T13:00:25.195Z,5.40
2023-04-29T13:03:01.898Z,5.18
2023-04-29T13:05:39.413Z,4.40
2023-04-29T13:08:16.761Z,4.38
2023-04-29T13:10:52.958Z,5.32
2023-04-29T13:13:29.385Z,3.30
2023-04-29T13:16:06.164Z,3.13
2023-04-29T13:18:47.919Z,3.65
2023-04-29T13:21:34.508Z,4.10
2023-04-29T13:24:12.823Z,4.30
2023-04-29T13:26:49.116Z,3.78
2023-04-29T13:29:26.419Z,4.72
2023-04-29T13:32:04.340Z,4.78
2023-04-29T13:34:43.200Z,4.18
2023-04-29T13:37:19.020Z,3.28
2023-04-29T13:39:57.639Z,3.67
2023-04-29T13:42:46.025Z,2.55
2023-04-29T13:45:28.584Z,2.08
2023-04-29T13:48:12.663Z,2.83
2023-04-29T13:54:29.227Z,2.60
2023-04-29T13:59:41.606Z,2.85
2023-04-29T14:02:24.103Z,1.58
2023-04-29T14:05:00.142Z,2.17
2023-04-29T14:07:36.466Z,1.65
2023-04-29T14:10:11.174Z,1.73
2023-04-29T14:12:51.083Z,1.20
2023-04-29T14:15:26.834Z,3.15
2023-04-29T14:18:03.762Z,1.50
2023-04-29T14:20:38.321Z,2.38
2023-04-29T14:23:13.055Z,1.85
2023-04-29T14:25:47.669Z,2.17
2023-04-29T14:28:25.557Z,1.10
2023-04-29T14:31:03.702Z,2.30
2023-04-29T14:33:39.218Z,1.75
2023-04-29T14:36:14.481Z,2.53
2023-04-29T14:38:53.111Z,1.90
2023-04-29T14:41:27.616Z,2.85
2023-04-29T14:44:05.271Z,2.00
2023-04-29T14:46:40.211Z,1.35
2023-04-29T14:49:16.173Z,1.95
2023-04-29T14:51:50.804Z,1.42
2023-04-29T14:54:26.308Z,1.27
2023-04-29T14:57:00.697Z,1.95
2023-04-29T14:59:38.122Z,0.82
2023-04-29T15:02:13.214Z,2.25
2023-04-29T15:04:49.035Z,1.02
2023-04-29T15:07:24.729Z,2.97
2023-04-29T15:10:01.227Z,2.47
2023-04-29T15:12:39.712Z,1.38
2023-04-29T15:15:16.675Z,1.65
2023-04-29T15:17:51.344Z,2.15
2023-04-29T15:20:27.221Z,1.90
2023-04-29T15:23:01.796Z,0.70
2023-04-29T15:25:36.698Z,1.98
2023-04-29T15:28:11.100Z,0.98
2023-04-29T15:30:48.538Z,1.67
2023-04-29T15:33:23.039Z,1.75
2023-04-29T15:36:03.840Z,2.03
2023-04-29T15:38:38.181Z,1.27
2023-04-29T15:41:13.703Z,1.58
2023-04-29T15:43:48.056Z,1.08
2023-04-29T15:46:25.211Z,2.97
2023-04-29T15:48:59.691Z,1.17
2023-04-29T15:51:36.128Z,0.70
2023-04-29T15:54:11.700Z,1.83
2023-04-29T15:56:46.216Z,1.75
2023-04-29T15:59:20.731Z,0.65
2023-04-29T16:01:58.597Z,1.08
2023-04-29T16:04:33.003Z,1.00
2023-04-29T16:07:08.308Z,1.33
2023-04-29T16:09:42.749Z,1.65
2023-04-29T16:12:18.649Z,0.95
2023-04-29T16:14:52.917Z,0.55
2023-04-29T16:17:29.322Z,0.80
2023-04-29T16:20:03.743Z,0.55
2023-04-29T16:22:40.596Z,2.15
2023-04-29T16:25:15.331Z,0.88
2023-04-29T16:27:51.030Z,1.65
2023-04-29T16:30:25.382Z,1.85
2023-04-29T16:33:02.743Z,0.40
2023-04-29T16:35:38.122Z,0.98
2023-04-29T16:38:13.339Z,0.82
2023-04-29T16:40:50.909Z,1.63
2023-04-29T16:43:26.708Z,2.17
2023-04-29T16:46:01.950Z,2.00
2023-04-29T16:48:38.411Z,1.35
2023-04-29T16:51:13.305Z,1.83
2023-04-29T16:53:49.667Z,1.40
2023-04-29T16:56:25.343Z,0.95
2023-04-29T16:59:00.331Z,0.82
2023-04-29T17:01:34.722Z,0.80
2023-04-29T17:04:12.531Z,0.98
2023-04-29T17:06:46.954Z,0.30
2023-04-29T17:09:22.755Z,1.65
2023-04-29T17:11:57.682Z,0.70
2023-04-29T17:14:33.293Z,1.85
2023-04-29T17:17:07.727Z,1.30
2023-04-29T17:19:44.288Z,2.45
2023-04-29T17:22:18.719Z,1.88
2023-04-29T17:24:58.495Z,0.75
2023-04-29T17:27:35.666Z,1.50
2023-04-29T17:30:10.655Z,1.50
2023-04-29T17:32:46.183Z,1.77
2023-04-29T17:35:23.417Z,1.40
2023-04-29T17:37:58.018Z,0.85
2023-04-29T17:40:33.396Z,1.88
2023-04-29T17:43:07.800Z,1.55
2023-04-29T17:45:45.650Z,1.90
2023-04-29T17:48:22.093Z,1.48
2023-04-29T17:50:58.899Z,1.52
2023-04-29T17:53:34.709Z,0.93
2023-04-29T17:56:11.280Z,2.85
2023-04-29T17:58:45.850Z,1.33
2023-04-29T18:01:20.451Z,1.45
2023-04-29T18:03:55.251Z,2.22
2023-04-29T18:06:34.156Z,2.22
2023-04-29T18:09:08.995Z,0.90
2023-04-29T18:11:44.369Z,0.80
2023-04-29T18:14:19.097Z,1.48
2023-04-29T18:16:54.922Z,1.80
2023-04-29T18:19:29.534Z,1.02
2023-04-29T18:22:06.134Z,1.52
2023-04-29T18:24:41.323Z,1.13
2023-04-29T18:27:15.939Z,1.00
2023-04-29T18:29:50.611Z,0.75
2023-04-29T18:32:25.930Z,1.27
2023-04-29T18:35:01.262Z,0.98
2023-04-29T18:37:37.948Z,1.42
2023-04-29T18:40:12.960Z,2.78
2023-04-29T18:42:48.438Z,2.67
2023-04-29T18:45:24.663Z,3.17
2023-04-29T18:47:59.967Z,0.93
2023-04-29T18:50:34.688Z,0.52
2023-04-29T18:53:11.264Z,1.48
2023-04-29T18:55:47.307Z,1.45
2023-04-29T18:58:22.363Z,0.50
2023-04-29T19:00:56.797Z,1.33
2023-04-29T19:03:32.049Z,1.00
2023-04-29T19:06:07.422Z,0.73
2023-04-29T19:08:49.659Z,1.38
2023-04-29T19:11:24.364Z,0.50
2023-04-29T19:13:59.187Z,0.73
2023-04-29T19:16:36.318Z,0.63
2023-04-29T19:19:12.614Z,2.13
2023-04-29T19:21:47.120Z,1.60
2023-04-29T19:24:23.938Z,1.73
2023-04-29T19:26:59.533Z,1.35
2023-04-29T19:29:34.151Z,1.75
2023-04-29T19:32:09.302Z,1.77
2023-04-29T19:34:46.151Z,1.95
2023-04-29T19:37:21.978Z,1.17
2023-04-29T19:39:58.423Z,0.73
2023-04-29T19:42:34.487Z,0.57
2023-04-29T19:45:09.743Z,0.50
2023-04-29T19:47:45.033Z,0.88
2023-04-29T19:50:20.483Z,0.98
2023-04-29T19:52:55.228Z,1.88
2023-04-29T19:55:32.899Z,1.40
2023-04-29T19:58:08.624Z,2.00
2023-04-29T20:00:43.573Z,1.55
2023-04-29T20:03:18.227Z,1.02
2023-04-29T20:05:54.001Z,1.02
2023-04-29T20:08:29.350Z,1.90
2023-04-29T20:11:06.354Z,2.10
2023-04-29T20:13:40.760Z,1.92
2023-04-29T20:16:15.550Z,0.82
2023-04-29T20:18:51.029Z,1.08
2023-04-29T20:21:26.303Z,1.35
2023-04-29T20:24:03.731Z,0.95
2023-04-29T20:26:40.107Z,2.30
2023-04-29T20:29:15.331Z,1.30
2023-04-29T20:31:49.823Z,1.17
2023-04-29T20:34:24.361Z,1.83
2023-04-29T20:36:59.582Z,1.33
2023-04-29T20:39:34.826Z,1.80
2023-04-29T20:42:12.373Z,2.72
2023-04-29T20:44:46.696Z,2.30
2023-04-29T20:47:21.680Z,0.80
2023-04-29T20:49:57.074Z,2.22
2023-04-29T20:52:32.353Z,1.17
2023-04-29T20:55:08.184Z,1.65
2023-04-29T20:57:44.666Z,1.50
2023-04-29T21:00:20.081Z,1.00
2023-04-29T21:02:54.828Z,1.70
2023-04-29T21:05:29.394Z,1.27
2023-04-29T21:08:04.686Z,2.47
2023-04-29T21:10:40.209Z,1.75
2023-04-29T21:13:16.813Z,1.30
2023-04-29T21:15:51.332Z,2.47
2023-04-29T21:18:26.289Z,1.70
2023-04-29T21:21:01.912Z,1.50
2023-04-29T21:23:37.205Z,1.02
2023-04-29T21:26:11.786Z,2.85
2023-04-29T21:28:48.355Z,3.88
2023-04-29T21:31:24.006Z,0.98
2023-04-29T21:34:01.931Z,2.40
2023-04-29T21:36:36.300Z,2.92
2023-04-29T21:39:12.687Z,1.52
2023-04-29T21:41:48.669Z,1.58
2023-04-29T21:44:25.368Z,1.60
2023-04-29T21:47:01.299Z,1.65
2023-04-29T21:49:35.894Z,1.45
2023-04-29T21:52:11.641Z,1.33
2023-04-29T21:54:46.854Z,1.50
2023-04-29T21:57:28.964Z,2.55
2023-04-29T22:00:23.256Z,2.58
2023-04-29T22:02:58.765Z,2.03
2023-04-29T22:05:33.347Z,2.58
2023-04-29T22:08:08.796Z,2.50
2023-04-29T22:10:45.287Z,1.73
2023-04-29T22:13:20.590Z,3.72
2023-04-29T22:15:57.229Z,1.98
2023-04-29T22:18:31.798Z,1.35
2023-04-29T22:21:06.311Z,2.33
2023-04-29T22:23:41.977Z,1.23
2023-04-29T22:26:17.958Z,1.55
2023-04-29T22:28:53.476Z,2.50
2023-04-29T22:31:30.661Z,1.75
2023-04-29T22:34:06.036Z,1.08
2023-04-29T22:36:41.604Z,3.95
2023-04-29T22:39:15.938Z,1.63
2023-04-29T22:41:51.077Z,2.30
2023-04-29T22:44:26.622Z,2.97
2023-04-29T22:47:03.398Z,2.10
2023-04-29T22:49:37.855Z,2.00
2023-04-29T22:52:12.560Z,3.05
2023-04-29T22:54:47.931Z,0.88
2023-04-29T22:57:23.351Z,2.65
2023-04-29T22:59:58.840Z,1.83
2023-04-29T23:02:35.489Z,1.00
2023-04-29T23:05:12.102Z,2.10
2023-04-29T23:07:46.781Z,1.58
2023-04-29T23:10:21.346Z,1.23
2023-04-29T23:12:56.582Z,1.52
2023-04-29T23:15:32.125Z,2.53
2023-04-29T23:18:08.831Z,3.42
2023-04-29T23:20:43.197Z,1.63
2023-04-29T23:23:19.066Z,1.05
2023-04-29T23:25:54.765Z,1.35
2023-04-29T23:28:29.909Z,1.13
2023-04-29T23:31:04.288Z,2.65
2023-04-29T23:33:40.885Z,1.73
2023-04-29T23:36:16.284Z,0.88
2023-04-29T23:38:50.746Z,1.15
2023-04-29T23:41:25.065Z,2.85
2023-04-29T23:44:02.672Z,1.17
2023-04-29T23:46:38.276Z,3.38
2023-04-29T23:49:16.104Z,1.48
2023-04-29T23:51:50.372Z,2.13
2023-04-29T23:54:25.066Z,1.13
2023-04-29T23:57:00.556Z,2.45
2023-04-29T23:59:35.822Z,3.08
